createdAt,value
2019-04-01T00:00:46.161Z,28.93
2019-04-01T00:03:15.467Z,30.03
2019-04-01T00:05:44.772Z,31.40
2019-04-01T00:08:14.040Z,29.67
2019-04-01T00:10:43.337Z,29.30
2019-04-01T00:13:12.603Z,31.13
2019-04-01T00:15:42.086Z,27.87
2019-04-01T00:18:11.388Z,28.50
2019-04-01T00:20:40.699Z,29.93
2019-04-01T00:23:10.106Z,28.40
2019-04-01T00:25:39.613Z,30.60
2019-04-01T00:28:08.893Z,31.40
2019-04-01T00:30:38.174Z,28.70
2019-04-01T00:33:07.457Z,29.33
2019-04-01T00:35:36.838Z,29.43
2019-04-01T00:38:06.211Z,28.80
2019-04-01T00:40:35.485Z,30.13
2019-04-01T00:43:11.639Z,30.37
2019-04-01T00:45:42.213Z,27.63
2019-04-01T00:48:11.502Z,29.97
2019-04-01T00:50:40.778Z,28.60
2019-04-01T00:53:10.020Z,30.83
2019-04-01T00:55:42.440Z,30.97
2019-04-01T00:58:11.731Z,32.70
2019-04-01T01:00:41.056Z,30.33
2019-04-01T01:03:10.371Z,28.87
2019-04-01T01:05:39.652Z,30.40
2019-04-01T01:08:08.926Z,31.30
2019-04-01T01:10:38.200Z,29.17
2019-04-01T01:13:07.471Z,30.50
2019-04-01T01:15:36.735Z,30.60
2019-04-01T01:18:06.035Z,32.13
2019-04-01T01:20:35.348Z,28.97
2019-04-01T01:23:04.626Z,29.40
2019-04-01T01:25:33.888Z,31.80
2019-04-01T01:28:03.174Z,31.03
2019-04-01T01:30:32.624Z,32.13
2019-04-01T01:33:01.968Z,30.90
2019-04-01T01:35:31.293Z,30.63
2019-04-01T01:38:00.598Z,31.13
2019-04-01T01:40:29.921Z,27.70
2019-04-01T01:42:59.308Z,31.13
2019-04-01T01:45:28.604Z,27.43
2019-04-01T01:47:57.900Z,33.63
2019-04-01T01:50:27.174Z,29.73
2019-04-01T01:52:56.489Z,30.53
2019-04-01T01:55:25.760Z,29.50
2019-04-01T01:57:55.039Z,30.43
2019-04-01T02:00:27.104Z,28.73
2019-04-01T02:02:58.107Z,29.97
2019-04-01T02:05:27.420Z,30.03
2019-04-01T02:08:15.853Z,30.10
2019-04-01T02:10:45.127Z,30.80
2019-04-01T02:13:14.475Z,32.87
2019-04-01T02:15:43.747Z,32.07
2019-04-01T02:18:13.039Z,30.47
2019-04-01T02:20:42.324Z,31.93
2019-04-01T02:23:11.620Z,31.73
2019-04-01T02:25:40.887Z,31.00
2019-04-01T02:28:10.172Z,28.70
2019-04-01T02:30:39.563Z,29.70
2019-04-01T02:33:08.848Z,31.10
2019-04-01T02:35:38.267Z,29.30
2019-04-01T02:38:07.576Z,30.17
2019-04-01T02:40:39.879Z,31.20
2019-04-01T02:43:09.178Z,28.87
2019-04-01T02:45:38.479Z,30.43
2019-04-01T02:48:07.768Z,30.37
2019-04-01T02:50:38.704Z,30.53
2019-04-01T02:53:08.011Z,29.87
2019-04-01T02:55:37.337Z,29.77
2019-04-01T02:58:06.600Z,29.90
2019-04-01T03:00:35.917Z,30.57
2019-04-01T03:03:05.219Z,29.27
2019-04-01T03:05:34.511Z,31.20
2019-04-01T03:08:03.794Z,30.37
2019-04-01T03:10:33.074Z,30.50
2019-04-01T03:13:02.428Z,29.80
2019-04-01T03:15:31.759Z,30.70
2019-04-01T03:18:01.041Z,27.97
2019-04-01T03:20:30.325Z,31.50
2019-04-01T03:22:59.629Z,30.40
2019-04-01T03:25:28.902Z,29.10
2019-04-01T03:27:58.242Z,31.23
2019-04-01T03:30:27.547Z,29.10
2019-04-01T03:32:56.911Z,32.47
2019-04-01T03:35:26.305Z,31.40
2019-04-01T03:37:55.689Z,31.87
2019-04-01T03:40:24.975Z,29.33
2019-04-01T03:42:54.287Z,28.10
2019-04-01T03:45:23.538Z,26.37
2019-04-01T03:47:52.840Z,28.40
2019-04-01T03:50:22.094Z,29.40
2019-04-01T03:52:51.362Z,29.77
2019-04-01T03:55:20.668Z,30.90
2019-04-01T03:57:49.965Z,31.07
2019-04-01T04:00:19.461Z,28.23
2019-04-01T04:02:48.732Z,31.93
2019-04-01T04:05:18.037Z,27.77
2019-04-01T04:08:06.390Z,27.90
2019-04-01T04:10:35.778Z,30.60
2019-04-01T04:13:05.045Z,27.53
2019-04-01T04:15:34.605Z,27.80
2019-04-01T04:18:03.862Z,30.83
2019-04-01T04:20:33.192Z,30.60
2019-04-01T04:23:02.469Z,29.97
2019-04-01T04:25:31.791Z,30.97
2019-04-01T04:28:01.101Z,29.70
2019-04-01T04:30:30.419Z,31.80
2019-04-01T04:32:59.758Z,29.70
2019-04-01T04:35:29.095Z,28.30
2019-04-01T04:37:59.947Z,29.60
2019-04-01T04:40:29.238Z,29.53
2019-04-01T04:42:58.734Z,32.90
2019-04-01T04:45:28.061Z,31.73
2019-04-01T04:47:57.457Z,31.43
2019-04-01T04:50:26.910Z,32.30
2019-04-01T04:52:56.166Z,32.90
2019-04-01T04:55:25.439Z,31.80
2019-04-01T04:57:54.731Z,29.23
2019-04-01T05:00:24.052Z,29.97
2019-04-01T05:02:53.349Z,29.30
2019-04-01T05:05:22.654Z,33.43
2019-04-01T05:07:51.911Z,29.00
2019-04-01T05:10:21.215Z,29.93
2019-04-01T05:12:50.502Z,29.93
2019-04-01T05:15:19.785Z,28.33
2019-04-01T05:17:49.126Z,30.57
2019-04-01T05:20:18.435Z,28.20
2019-04-01T05:22:48.226Z,29.20
2019-04-01T05:25:17.536Z,29.87
2019-04-01T05:27:48.513Z,29.90
2019-04-01T05:30:18.840Z,31.77
2019-04-01T05:32:50.321Z,30.40
2019-04-01T05:35:19.610Z,30.97
2019-04-01T05:37:48.888Z,30.23
2019-04-01T05:40:19.235Z,33.00
2019-04-01T05:42:48.632Z,30.57
2019-04-01T05:45:17.985Z,32.20
2019-04-01T05:47:49.688Z,35.40
2019-04-01T05:50:19.000Z,33.07
2019-04-01T05:52:48.878Z,32.63
2019-04-01T05:55:18.187Z,31.53
2019-04-01T05:57:47.483Z,31.00
2019-04-01T06:00:48.184Z,30.90
2019-04-01T06:03:17.471Z,31.30
2019-04-01T06:05:46.867Z,34.47
2019-04-01T06:08:17.214Z,30.60
2019-04-01T06:10:46.610Z,34.60
2019-04-01T06:13:16.378Z,30.60
2019-04-01T06:15:46.027Z,32.87
2019-04-01T06:18:16.335Z,30.97
2019-04-01T06:20:45.819Z,31.67
2019-04-01T06:23:15.209Z,32.77
2019-04-01T06:25:44.557Z,33.73
2019-04-01T06:28:13.944Z,32.87
2019-04-01T06:30:43.229Z,30.73
2019-04-01T06:33:12.559Z,31.60
2019-04-01T06:35:41.874Z,31.83
2019-04-01T06:38:11.247Z,30.50
2019-04-01T06:40:40.567Z,32.03
2019-04-01T06:43:09.928Z,32.90
2019-04-01T06:45:39.251Z,33.63
2019-04-01T06:48:08.613Z,30.70
2019-04-01T06:50:37.966Z,29.50
2019-04-01T06:53:07.270Z,30.30
2019-04-01T06:55:36.552Z,32.50
2019-04-01T06:58:05.875Z,31.87
2019-04-01T07:00:35.138Z,32.07
2019-04-01T07:03:04.579Z,31.40
2019-04-01T07:05:33.919Z,31.37
2019-04-01T07:08:03.235Z,35.70
2019-04-01T07:10:32.604Z,30.03
2019-04-01T07:13:02.089Z,31.00
2019-04-01T07:15:31.397Z,29.67
2019-04-01T07:18:00.701Z,32.10
2019-04-01T07:20:30.031Z,33.33
2019-04-01T07:22:59.500Z,31.30
2019-04-01T07:25:28.828Z,32.10
2019-04-01T07:27:58.138Z,30.63
2019-04-01T07:30:27.496Z,30.33
2019-04-01T07:32:57.223Z,32.03
2019-04-01T07:35:26.493Z,32.13
2019-04-01T07:37:55.793Z,32.60
2019-04-01T07:40:25.085Z,30.57
2019-04-01T07:42:54.398Z,32.30
2019-04-01T07:45:23.698Z,29.20
2019-04-01T07:47:53.769Z,32.33
2019-04-01T07:50:23.101Z,31.23
2019-04-01T07:52:55.455Z,34.03
2019-04-01T07:55:23.718Z,32.53
2019-04-01T07:57:53.222Z,32.30
2019-04-01T08:00:22.554Z,30.30
2019-04-01T08:02:51.947Z,32.57
2019-04-01T08:05:21.262Z,31.27
2019-04-01T08:07:50.724Z,33.50
2019-04-01T08:10:20.155Z,30.50
2019-04-01T08:12:49.493Z,32.60
2019-04-01T08:15:21.401Z,32.50
2019-04-01T08:17:49.879Z,31.23
2019-04-01T08:20:19.267Z,33.00
2019-04-01T08:22:48.719Z,31.40
2019-04-01T08:25:18.139Z,30.77
2019-04-01T08:27:47.509Z,31.07
2019-04-01T08:30:17.055Z,31.10
2019-04-01T08:32:46.474Z,33.47
2019-04-01T08:35:18.515Z,30.37
2019-04-01T08:37:47.845Z,31.63
2019-04-01T08:40:17.477Z,32.00
2019-04-01T08:42:49.002Z,31.43
2019-04-01T08:45:17.928Z,33.10
2019-04-01T08:47:48.781Z,29.90
2019-04-01T08:50:18.355Z,31.57
2019-04-01T08:52:47.993Z,32.37
2019-04-01T08:55:17.396Z,31.70
2019-04-01T08:57:46.711Z,31.60
2019-04-01T09:00:16.101Z,31.10
2019-04-01T09:02:45.449Z,30.23
2019-04-01T09:05:14.855Z,30.23
2019-04-01T09:07:44.189Z,34.43
2019-04-01T09:10:13.570Z,29.87
2019-04-01T09:12:42.997Z,32.77
2019-04-01T09:15:12.403Z,31.97
2019-04-01T09:17:41.758Z,31.23
2019-04-01T09:20:11.247Z,31.23
2019-04-01T09:22:40.619Z,30.13
2019-04-01T09:25:10.005Z,28.30
2019-04-01T09:27:40.868Z,30.60
2019-04-01T09:30:11.135Z,31.73
2019-04-01T09:32:40.486Z,34.20
2019-04-01T09:35:10.097Z,29.07
2019-04-01T09:37:39.428Z,32.23
2019-04-01T09:40:09.624Z,31.40
2019-04-01T09:42:38.933Z,30.43
2019-04-01T09:45:08.681Z,30.13
2019-04-01T09:47:38.069Z,30.67
2019-04-01T09:50:07.556Z,32.30
2019-04-01T09:52:36.904Z,29.83
2019-04-01T09:55:07.069Z,30.63
2019-04-01T09:57:36.411Z,30.80
2019-04-01T10:00:06.889Z,31.33
2019-04-01T10:02:36.212Z,31.50
2019-04-01T10:05:06.243Z,30.77
2019-04-01T10:07:35.618Z,33.57
2019-04-01T10:10:06.228Z,32.03
2019-04-01T10:12:35.582Z,32.83
2019-04-01T10:15:06.235Z,32.27
2019-04-01T10:17:35.570Z,33.20
2019-04-01T10:20:06.175Z,31.13
2019-04-01T10:22:35.538Z,30.17
2019-04-01T10:25:05.210Z,32.47
2019-04-01T10:27:34.536Z,29.13
2019-04-01T10:30:04.051Z,31.60
2019-04-01T10:32:33.383Z,29.17
2019-04-01T10:35:02.746Z,28.70
2019-04-01T10:37:32.101Z,32.07
2019-04-01T10:40:01.546Z,30.70
2019-04-01T10:42:30.935Z,29.63
2019-04-01T10:45:00.397Z,32.20
2019-04-01T10:47:29.761Z,28.93
2019-04-01T10:49:59.248Z,30.10
2019-04-01T10:52:28.617Z,29.70
2019-04-01T10:54:57.964Z,27.30
2019-04-01T10:57:27.260Z,31.03
2019-04-01T10:59:56.618Z,30.57
2019-04-01T11:02:25.897Z,29.70
2019-04-01T11:04:55.496Z,29.03
2019-04-01T11:07:24.919Z,32.30
2019-04-01T11:09:54.273Z,29.73
2019-04-01T11:12:24.850Z,31.10
2019-04-01T11:14:54.318Z,29.57
2019-04-01T11:17:23.612Z,28.97
2019-04-01T11:19:52.935Z,29.40
2019-04-01T11:22:22.337Z,31.17
2019-04-01T11:24:51.663Z,28.67
2019-04-01T11:27:20.939Z,28.70
2019-04-01T11:29:50.261Z,31.87
2019-04-01T11:32:19.637Z,29.90
2019-04-01T11:34:49.075Z,31.40
2019-04-01T11:37:18.478Z,31.40
2019-04-01T11:39:47.749Z,29.43
2019-04-01T11:42:17.203Z,30.30
2019-04-01T11:44:46.530Z,29.53
2019-04-01T11:47:15.910Z,28.47
2019-04-01T11:49:45.265Z,27.57
2019-04-01T11:52:15.678Z,28.33
2019-04-01T11:54:45.446Z,26.07
2019-04-01T11:57:14.925Z,25.20
2019-04-01T11:59:44.450Z,27.20
2019-04-01T12:02:13.771Z,23.60
2019-04-01T12:04:43.230Z,24.33
2019-04-01T12:07:12.525Z,25.57
2019-04-01T12:09:41.861Z,25.70
2019-04-01T12:12:22.973Z,29.20
2019-04-01T12:14:42.209Z,27.27
2019-04-01T12:17:11.589Z,26.73
2019-04-01T12:19:41.156Z,26.60
2019-04-01T12:22:11.292Z,27.47
2019-04-01T12:24:40.899Z,29.50
2019-04-01T12:27:10.287Z,27.10
2019-04-01T12:29:43.210Z,26.73
2019-04-01T12:32:12.485Z,27.10
2019-04-01T12:34:42.286Z,25.57
2019-04-01T12:37:11.734Z,26.53
2019-04-01T12:39:41.955Z,28.13
2019-04-01T12:42:11.279Z,26.73
2019-04-01T12:44:41.456Z,26.17
2019-04-01T12:47:10.874Z,26.00
2019-04-01T12:49:40.185Z,26.67
2019-04-01T12:52:09.531Z,29.63
2019-04-01T12:54:38.940Z,27.90
2019-04-01T12:57:08.248Z,26.70
2019-04-01T12:59:37.682Z,26.13
2019-04-01T13:02:07.031Z,25.20
2019-04-01T13:04:36.355Z,25.50
2019-04-01T13:07:05.849Z,25.77
2019-04-01T13:09:35.305Z,24.10
2019-04-01T13:12:05.026Z,25.53
2019-04-01T13:14:34.410Z,24.57
2019-04-01T13:17:03.780Z,23.83
2019-04-01T13:19:33.082Z,26.20
2019-04-01T13:22:02.368Z,24.37
2019-04-01T13:24:32.874Z,25.30
2019-04-01T13:27:02.309Z,24.80
2019-04-01T13:29:31.569Z,24.97
2019-04-01T13:32:00.937Z,24.13
2019-04-01T13:34:30.398Z,24.70
2019-04-01T13:36:59.748Z,21.87
2019-04-01T13:39:29.035Z,20.57
2019-04-01T13:41:58.383Z,19.20
2019-04-01T13:44:36.635Z,19.33
2019-04-01T13:46:58.825Z,21.03
2019-04-01T13:49:28.210Z,25.53
2019-04-01T13:51:59.071Z,21.30
2019-04-01T13:54:28.573Z,20.03
2019-04-01T13:56:57.964Z,20.97
2019-04-01T13:59:27.266Z,20.70
2019-04-01T14:01:57.102Z,20.13
2019-04-01T14:04:27.486Z,19.47
2019-04-01T14:06:57.120Z,19.80
2019-04-01T14:09:26.461Z,19.50
2019-04-01T14:11:55.811Z,20.63
2019-04-01T14:14:25.155Z,18.30
2019-04-01T14:16:54.466Z,19.10
2019-04-01T14:19:23.799Z,18.37
2019-04-01T14:21:53.142Z,19.10
2019-04-01T14:24:22.417Z,18.90
2019-04-01T14:26:51.720Z,18.77
2019-04-01T14:29:20.983Z,19.93
2019-04-01T14:31:50.319Z,18.57
2019-04-01T14:34:23.477Z,18.30
2019-04-01T14:36:50.775Z,17.70
2019-04-01T14:39:20.058Z,18.43
2019-04-01T14:41:49.417Z,16.90
2019-04-01T14:44:18.784Z,17.63
2019-04-01T14:46:48.093Z,16.83
2019-04-01T14:49:17.422Z,17.13
2019-04-01T14:51:46.807Z,17.10
2019-04-01T14:54:16.303Z,17.47
2019-04-01T14:56:46.020Z,17.33
2019-04-01T14:59:15.628Z,19.30
2019-04-01T15:01:44.969Z,17.03
2019-04-01T15:04:14.290Z,18.03
2019-04-01T15:06:45.044Z,18.00
2019-04-01T15:09:14.504Z,19.50
2019-04-01T15:11:43.876Z,16.33
2019-04-01T15:14:13.181Z,17.60
2019-04-01T15:16:42.778Z,16.10
2019-04-01T15:19:12.925Z,15.70
2019-04-01T15:21:42.472Z,17.00
2019-04-01T15:24:11.818Z,16.53
2019-04-01T15:26:41.174Z,18.30
2019-04-01T15:29:10.510Z,14.93
2019-04-01T15:31:39.961Z,15.77
2019-04-01T15:34:09.525Z,17.00
2019-04-01T15:36:39.147Z,17.47
2019-04-01T15:39:12.021Z,16.57
2019-04-01T15:41:41.380Z,15.53
2019-04-01T15:44:10.689Z,14.87
2019-04-01T15:46:40.098Z,15.70
2019-04-01T15:49:11.440Z,17.27
2019-04-01T15:51:40.484Z,17.30
2019-04-01T15:54:09.938Z,15.83
2019-04-01T15:56:41.823Z,16.57
2019-04-01T15:59:10.412Z,15.80
2019-04-01T16:01:39.739Z,14.30
2019-04-01T16:04:09.109Z,15.90
2019-04-01T16:06:38.455Z,15.07
2019-04-01T16:09:07.930Z,15.87
2019-04-01T16:11:37.303Z,14.57
2019-04-01T16:14:06.750Z,14.53
2019-04-01T16:16:36.340Z,16.30
2019-04-01T16:19:06.031Z,14.07
2019-04-01T16:21:35.346Z,14.50
2019-04-01T16:24:04.795Z,16.33
2019-04-01T16:26:34.086Z,14.20
2019-04-01T16:29:03.447Z,15.50
2019-04-01T16:31:32.769Z,15.33
2019-04-01T16:34:02.116Z,14.57
2019-04-01T16:36:31.450Z,13.97
2019-04-01T16:39:00.789Z,15.93
2019-04-01T16:41:30.073Z,13.97
2019-04-01T16:43:59.410Z,13.03
2019-04-01T16:46:28.763Z,14.57
2019-04-01T16:48:58.221Z,15.93
2019-04-01T16:51:27.516Z,15.30
2019-04-01T16:53:56.831Z,14.67
2019-04-01T16:56:26.159Z,13.93
2019-04-01T16:58:55.464Z,14.37
2019-04-01T17:01:24.787Z,15.07
2019-04-01T17:03:54.074Z,14.13
2019-04-01T17:06:23.454Z,15.47
2019-04-01T17:08:52.833Z,15.83
2019-04-01T17:11:22.226Z,15.23
2019-04-01T17:13:51.599Z,14.93
2019-04-01T17:16:20.902Z,15.57
2019-04-01T17:18:50.460Z,15.00
2019-04-01T17:21:19.787Z,14.83
2019-04-01T17:23:49.308Z,13.40
2019-04-01T17:26:18.670Z,16.40
2019-04-01T17:28:48.101Z,15.97
2019-04-01T17:31:17.567Z,14.67
2019-04-01T17:33:47.681Z,13.97
2019-04-01T17:36:17.188Z,14.70
2019-04-01T17:38:48.244Z,14.90
2019-04-01T17:41:17.783Z,15.43
2019-04-01T17:43:47.204Z,16.10
2019-04-01T17:46:16.509Z,15.80
2019-04-01T17:48:45.835Z,15.87
2019-04-01T17:51:15.182Z,19.67
2019-04-01T17:53:44.813Z,15.97
2019-04-01T17:56:14.201Z,14.37
2019-04-01T17:58:44.399Z,14.83
2019-04-01T18:01:14.015Z,13.80
2019-04-01T18:03:43.345Z,13.50
2019-04-01T18:06:12.701Z,15.23
2019-04-01T18:08:41.987Z,14.83
2019-04-01T18:11:11.338Z,14.37
2019-04-01T18:13:40.689Z,16.00
2019-04-01T18:16:10.055Z,15.57
2019-04-01T18:18:39.421Z,15.37
2019-04-01T18:21:08.815Z,15.33
2019-04-01T18:23:38.209Z,13.90
2019-04-01T18:26:07.531Z,14.20
2019-04-01T18:28:36.847Z,14.20
2019-04-01T18:31:06.243Z,15.70
2019-04-01T18:33:35.667Z,14.53
2019-04-01T18:36:05.060Z,15.40
2019-04-01T18:38:34.427Z,15.73
2019-04-01T18:41:04.279Z,16.10
2019-04-01T18:43:34.638Z,15.30
2019-04-01T18:46:03.983Z,14.50
2019-04-01T18:48:33.292Z,14.97
2019-04-01T18:51:02.610Z,15.20
2019-04-01T18:53:31.908Z,16.33
2019-04-01T18:56:01.316Z,15.50
2019-04-01T18:58:30.852Z,15.37
2019-04-01T19:01:00.172Z,15.87
2019-04-01T19:03:29.591Z,16.20
2019-04-01T19:05:58.977Z,16.10
2019-04-01T19:08:28.394Z,15.90
2019-04-01T19:11:02.574Z,15.43
2019-04-01T19:13:29.066Z,16.60
2019-04-01T19:15:59.444Z,17.83
2019-04-01T19:18:29.794Z,16.60
2019-04-01T19:21:04.407Z,16.87
2019-04-01T19:23:31.113Z,15.63
2019-04-01T19:26:00.864Z,16.90
2019-04-01T19:28:30.239Z,16.67
2019-04-01T19:30:59.799Z,16.23
2019-04-01T19:33:29.152Z,16.07
2019-04-01T19:35:58.547Z,16.50
2019-04-01T19:38:27.949Z,16.17
2019-04-01T19:40:59.780Z,14.87
2019-04-01T19:43:31.907Z,15.13
2019-04-01T19:46:03.953Z,14.90
2019-04-01T19:48:33.280Z,15.10
2019-04-01T19:51:02.633Z,14.57
2019-04-01T19:53:32.117Z,15.47
2019-04-01T19:56:03.025Z,15.30
2019-04-01T19:58:32.562Z,16.30
2019-04-01T20:01:02.762Z,17.77
2019-04-01T20:03:32.126Z,16.17
2019-04-01T20:06:01.715Z,15.63
2019-04-01T20:08:31.054Z,16.13
2019-04-01T20:11:00.525Z,16.10
2019-04-01T20:13:29.884Z,17.20
2019-04-01T20:15:59.242Z,16.43
2019-04-01T20:18:28.632Z,14.70
2019-04-01T20:20:58.033Z,16.50
2019-04-01T20:23:27.367Z,15.97
2019-04-01T20:25:56.681Z,15.93
2019-04-01T20:28:26.102Z,15.70
2019-04-01T20:30:56.591Z,16.17
2019-04-01T20:33:26.199Z,17.07
2019-04-01T20:35:55.531Z,15.20
2019-04-01T20:38:24.923Z,16.30
2019-04-01T20:40:54.452Z,15.57
2019-04-01T20:43:23.878Z,16.60
2019-04-01T20:45:53.195Z,16.10
2019-04-01T20:48:22.512Z,16.60
2019-04-01T20:50:54.821Z,14.87
2019-04-01T20:53:22.998Z,15.80
2019-04-01T20:55:52.399Z,15.97
2019-04-01T20:58:21.745Z,17.40
2019-04-01T21:00:51.043Z,16.20
2019-04-01T21:03:20.370Z,15.20
2019-04-01T21:05:49.686Z,18.10
2019-04-01T21:08:19.029Z,17.53
2019-04-01T21:10:48.323Z,17.27
2019-04-01T21:13:17.664Z,17.00
2019-04-01T21:15:47.025Z,17.90
2019-04-01T21:18:16.389Z,17.87
2019-04-01T21:20:45.758Z,18.97
2019-04-01T21:23:15.070Z,19.57
2019-04-01T21:25:44.902Z,19.77
2019-04-01T21:28:14.207Z,20.57
2019-04-01T21:30:43.529Z,19.00
2019-04-01T21:33:13.936Z,19.20
2019-04-01T21:35:43.366Z,18.93
2019-04-01T21:38:12.701Z,20.77
2019-04-01T21:40:41.962Z,20.33
2019-04-01T21:43:11.295Z,20.40
2019-04-01T21:45:40.606Z,22.80
2019-04-01T21:48:10.562Z,22.93
2019-04-01T21:50:40.511Z,22.60
2019-04-01T21:53:10.100Z,20.57
2019-04-01T21:55:39.389Z,22.37
2019-04-01T21:58:08.762Z,21.83
2019-04-01T22:00:44.530Z,24.77
2019-04-01T22:03:13.867Z,23.90
2019-04-01T22:05:43.420Z,23.27
2019-04-01T22:08:13.145Z,23.17
2019-04-01T22:10:42.438Z,23.10
2019-04-01T22:13:11.731Z,23.90
2019-04-01T22:15:40.997Z,24.43
2019-04-01T22:18:10.315Z,23.23
2019-04-01T22:20:42.559Z,23.93
2019-04-01T22:23:10.652Z,24.37
2019-04-01T22:25:40.075Z,24.80
2019-04-01T22:28:09.423Z,24.37
2019-04-01T22:30:38.839Z,25.13
2019-04-01T22:33:08.155Z,22.20
2019-04-01T22:35:38.836Z,25.27
2019-04-01T22:38:08.493Z,24.47
2019-04-01T22:40:37.902Z,24.37
2019-04-01T22:43:07.310Z,23.97
2019-04-01T22:45:36.605Z,28.30
2019-04-01T22:48:06.026Z,25.90
2019-04-01T22:50:35.394Z,25.80
2019-04-01T22:53:08.365Z,24.80
2019-04-01T22:55:46.376Z,26.67
2019-04-01T22:58:12.951Z,24.53
2019-04-01T23:00:47.031Z,25.40
2019-04-01T23:03:16.573Z,25.67
2019-04-01T23:05:46.016Z,24.60
2019-04-01T23:08:15.360Z,25.73
2019-04-01T23:10:44.643Z,25.90
2019-04-01T23:13:13.935Z,24.93
2019-04-01T23:15:44.158Z,26.13
2019-04-01T23:18:13.879Z,26.50
2019-04-01T23:20:43.222Z,26.60
2019-04-01T23:23:12.532Z,25.53
2019-04-01T23:25:45.746Z,27.40
2019-04-01T23:28:15.043Z,26.80
2019-04-01T23:30:44.591Z,25.43
2019-04-01T23:33:13.917Z,26.57
2019-04-01T23:35:43.706Z,25.27
2019-04-01T23:38:13.106Z,27.40
2019-04-01T23:40:42.410Z,27.90
2019-04-01T23:43:11.786Z,27.13
2019-04-01T23:45:41.110Z,27.70
2019-04-01T23:48:10.417Z,29.70
2019-04-01T23:50:39.694Z,28.03
2019-04-01T23:53:08.982Z,26.73
2019-04-01T23:55:38.305Z,26.93
2019-04-01T23:58:07.591Z,25.50
